Time;durP1;ratioP1;P1;durP2;ratioP2;P2;SDS_P1;SDS_P2;PMS_P1;PMS_P2;Temp;Humidity;BMP_temperature;BMP_pressure;BME280_temperature;BME280_humidity;BME280_pressure;Samples;Min_cycle;Max_cycle;Signal;HPM_P1;HPM_P2
2023/03/26 00:05:00;;;;;;;3.73;1.40;;;;;;;7.71;100.00;99292.37;5087539;56;1136704;-72
2023/03/26 00:10:06;;;;;;;2.60;1.47;;;;;;;7.71;100.00;99293.69;5067671;56;1136765;-71
2023/03/26 00:15:12;;;;;;;3.13;1.10;;;;;;;7.68;100.00;99293.11;5067443;56;1136625;-65
2023/03/26 00:20:18;;;;;;;1.10;1.00;;;;;;;7.68;100.00;99295.73;5067518;56;1136665;-78
2023/03/26 00:25:24;;;;;;;1.30;1.20;;;;;;;7.64;100.00;99287.27;5087363;56;1136831;-76
2023/03/26 00:30:30;;;;;;;3.83;1.17;;;;;;;7.64;100.00;99269.33;5067812;56;1136688;-72
2023/03/26 00:35:42;;;;;;;4.17;1.47;;;;;;;7.61;100.00;99266.50;5067016;56;1136753;-73
2023/03/26 00:40:49;;;;;;;3.80;1.25;;;;;;;7.55;100.00;99260.44;5086897;56;1136762;-70
2023/03/26 00:45:56;;;;;;;2.47;1.30;;;;;;;7.51;100.00;99248.50;5067568;56;1136701;-71
2023/03/26 00:51:01;;;;;;;3.77;1.57;;;;;;;7.47;100.00;99257.64;5097810;55;1136839;-67
2023/03/26 00:56:08;;;;;;;1.87;1.20;;;;;;;7.42;100.00;99251.92;5120120;55;1136746;-71
2023/03/26 01:01:19;;;;;;;8.08;1.75;;;;;;;7.37;100.00;99247.52;5079666;56;1136670;-74
2023/03/26 01:06:40;;;;;;;3.92;1.65;;;;;;;7.34;100.00;99262.23;5053439;56;1136801;-73
2023/03/26 01:11:41;;;;;;;4.13;1.00;;;;;;;7.32;100.00;99253.67;5085339;56;1136900;-69
2023/03/26 01:16:53;;;;;;;3.90;1.03;;;;;;;7.31;100.00;99250.20;5066845;56;1136765;-74
2023/03/26 01:22:00;;;;;;;5.20;2.50;;;;;;;7.28;100.00;99258.83;5067311;56;1136707;-65
2023/03/26 01:27:30;;;;;;;3.17;0.90;;;;;;;7.25;100.00;99261.70;5086900;56;1136573;-73
2023/03/26 01:32:59;;;;;;;2.30;0.60;;;;;;;7.14;100.00;99250.78;5067116;56;1136832;-68
2023/03/26 01:38:30;;;;;;;0.73;0.73;;;;;;;7.02;100.00;99236.04;5066617;56;1136977;-72
2023/03/26 01:43:43;;;;;;;1.43;0.60;;;;;;;6.93;100.00;99236.78;5067832;56;1136709;-73
2023/03/26 01:48:48;;;;;;;;;;;;;;;6.91;100.00;99231.66;5097057;56;1136709;-74
2023/03/26 01:53:55;;;;;;;3.10;0.63;;;;;;;6.93;100.00;99234.98;5121658;55;974007;-70
2023/03/26 01:59:27;;;;;;;2.33;0.70;;;;;;;6.94;100.00;99231.41;5173511;55;1134619;-71
2023/03/26 02:04:52;;;;;;;1.37;0.50;;;;;;;6.93;100.00;99231.05;5173594;55;1136662;-76
2023/03/26 02:10:05;;;;;;;7.33;0.87;;;;;;;6.92;100.00;99226.75;5193363;55;1136742;-73
2023/03/26 02:15:11;;;;;;;1.43;0.83;;;;;;;6.95;100.00;99228.30;5173930;55;1136644;-68
2023/03/26 02:20:19;;;;;;;1.95;1.37;;;;;;;6.96;100.00;99228.66;5173889;55;1136867;-69
2023/03/26 02:25:25;;;;;;;1.37;1.00;;;;;;;6.99;100.00;99226.61;5135447;56;1136636;-69
2023/03/26 02:30:32;;;;;;;3.93;2.00;;;;;;;7.03;100.00;99216.64;5181207;55;1136686;-68
2023/03/26 02:35:38;;;;;;;3.07;1.40;;;;;;;7.06;100.00;99213.29;5163034;55;1136628;-69
2023/03/26 02:40:44;;;;;;;3.20;1.00;;;;;;;7.11;100.00;99211.59;4943306;58;1136821;-71
2023/03/26 02:45:51;;;;;;;2.67;1.30;;;;;;;7.14;100.00;99211.34;4923681;58;1136857;-75
2023/03/26 02:51:08;;;;;;;4.37;1.80;;;;;;;7.17;100.00;99206.31;4983349;56;1136718;-76
2023/03/26 02:56:18;;;;;;;2.37;1.60;;;;;;;7.18;100.00;99210.09;4983694;56;1136611;-74
2023/03/26 03:01:29;;;;;;;5.70;1.37;;;;;;;7.18;100.00;99200.09;4990797;57;1136648;-71
2023/03/26 03:06:33;;;;;;;3.42;1.50;;;;;;;7.14;100.00;99192.94;4983267;57;1136627;-71
2023/03/26 03:11:41;;;;;;;4.87;1.30;;;;;;;7.16;100.00;99204.16;4966416;57;1136641;-70
2023/03/26 03:16:46;;;;;;;4.10;1.27;;;;;;;7.17;100.00;99203.69;4999458;57;1136843;-71
2023/03/26 03:21:52;;;;;;;2.37;1.13;;;;;;;7.19;100.00;99202.56;4979147;57;1136702;-72
2023/03/26 03:26:58;;;;;;;1.13;0.83;;;;;;;7.19;100.00;99202.56;4963150;57;1136654;-68
2023/03/26 03:32:06;;;;;;;1.93;0.83;;;;;;;7.24;100.00;99202.19;5086063;56;1136877;-74
2023/03/26 03:37:17;;;;;;;1.23;0.97;;;;;;;7.24;100.00;99202.19;5014639;56;1136865;-71
2023/03/26 03:42:26;;;;;;;3.58;1.30;;;;;;;7.24;100.00;99200.39;5067285;56;1136758;-73
2023/03/26 03:47:33;;;;;;;1.95;1.02;;;;;;;7.25;100.00;99209.11;5091260;56;1137041;-71
2023/03/26 03:52:39;;;;;;;1.17;0.90;;;;;;;7.24;100.00;99198.24;5087439;56;1137047;-71
2023/03/26 03:57:45;;;;;;;2.80;1.33;;;;;;;7.23;100.00;99197.41;5015072;56;1136638;-75
2023/03/26 04:02:56;;;;;;;4.50;1.60;;;;;;;7.25;100.00;99207.80;5107281;56;1136645;-73
2023/03/26 04:08:04;;;;;;;1.03;0.73;;;;;;;7.23;100.00;99208.41;5087479;56;1136784;-74
2023/03/26 04:13:23;;;;;;;4.70;0.90;;;;;;;7.22;100.00;99208.05;5059015;56;1136823;-74
2023/03/26 04:18:47;;;;;;;1.17;0.80;;;;;;;7.18;100.00;99203.53;5036352;56;1136709;-71
2023/03/26 04:23:53;;;;;;;2.33;1.20;;;;;;;7.15;100.00;99199.87;4943929;57;1136725;-72
2023/03/26 04:29:20;;;;;;;1.40;1.05;;;;;;;7.10;100.00;99197.27;4991088;56;1136595;-74
2023/03/26 04:34:29;;;;;;;0.82;0.82;;;;;;;7.09;100.00;99196.42;4965307;57;1136968;-72
2023/03/26 04:39:35;;;;;;;2.00;1.00;;;;;;;7.08;100.00;99200.02;5046197;55;1137268;-75
2023/03/26 04:44:58;;;;;;;1.90;1.10;;;;;;;7.09;100.00;99196.42;5003699;57;1136761;-71
2023/03/26 04:50:10;;;;;;;2.40;0.97;;;;;;;7.10;100.00;99195.47;5044299;56;1136974;-72
2023/03/26 04:55:39;;;;;;;1.87;1.00;;;;;;;7.12;100.00;99192.72;4983673;57;1136938;-65
2023/03/26 05:00:48;;;;;;;4.47;1.40;;;;;;;7.14;100.00;99194.25;4979179;57;1136577;-72
2023/03/26 05:05:54;;;;;;;3.73;0.90;;;;;;;7.16;100.00;99191.50;4927924;57;1136715;-74
2023/03/26 05:11:00;;;;;;;4.23;1.20;;;;;;;7.18;100.00;99198.78;4927876;57;1136755;-71
2023/03/26 05:16:08;;;;;;;2.73;1.20;;;;;;;7.19;100.00;99199.10;5079816;56;1136646;-72
2023/03/26 05:21:15;;;;;;;2.30;1.20;;;;;;;7.19;100.00;99196.47;4998931;56;1136722;-73
2023/03/26 05:26:21;;;;;;;2.87;1.30;;;;;;;7.20;100.00;99204.23;4985413;58;1136683;-68
2023/03/26 05:31:29;;;;;;;3.67;1.37;;;;;;;7.22;100.00;99204.94;4985502;56;1136711;-72
2023/03/26 05:36:35;;;;;;;3.25;1.47;;;;;;;7.24;100.00;99213.54;5002051;57;1136650;-79
2023/03/26 05:41:46;;;;;;;3.97;1.10;;;;;;;7.25;100.00;99212.58;5040722;56;1136854;-69
2023/03/26 05:46:52;;;;;;;4.47;1.17;;;;;;;7.26;100.00;99212.09;4953433;57;1136864;-79
2023/03/26 05:51:59;;;;;;;0.90;0.90;;;;;;;7.27;100.00;99209.82;4945526;57;1136889;-65
2023/03/26 05:57:06;;;;;;;0.93;0.90;;;;;;;7.25;100.00;99215.69;4977885;57;1136967;-70
2023/03/26 06:02:29;;;;;;;;;;;;;;;7.26;100.00;99208.16;5086142;56;1136678;-75
2023/03/26 06:07:52;;;;;;;2.73;1.00;;;;;;;7.27;100.00;99225.13;5104248;55;974117;-76
2023/03/26 06:12:58;;;;;;;3.20;1.00;;;;;;;7.28;100.00;99220.70;5088425;55;1134563;-71
2023/03/26 06:18:04;;;;;;;6.60;1.10;;;;;;;7.27;100.00;99227.75;5072929;56;1136701;-74
2023/03/26 06:23:12;;;;;;;2.07;1.23;;;;;;;7.25;100.00;99223.09;5112111;55;1136748;-78
2023/03/26 06:28:31;;;;;;;1.90;0.70;;;;;;;7.26;100.00;99237.08;5142860;55;1136697;-73
2023/03/26 06:33:41;;;;;;;3.20;1.27;;;;;;;7.23;100.00;99233.39;5084257;55;1136706;-74
2023/03/26 06:38:49;;;;;;;2.37;1.00;;;;;;;7.21;100.00;99233.99;5035211;56;1136875;-75
2023/03/26 06:43:54;;;;;;;5.23;2.40;;;;;;;7.20;100.00;99253.36;4984188;57;1136657;-70
2023/03/26 06:49:00;;;;;;;2.10;1.00;;;;;;;7.18;100.00;99252.69;5048270;56;1136748;-70
2023/03/26 06:54:19;;;;;;;1.97;1.10;;;;;;;7.17;100.00;99249.70;4775240;59;1136737;-72
2023/03/26 06:59:24;;;;;;;3.73;1.40;;;;;;;7.17;100.00;99258.42;4913647;58;1136871;-68
2023/03/26 07:04:47;;;;;;;4.72;1.02;;;;;;;7.21;100.00;99260.29;4851016;59;1137015;-71
2023/03/26 07:10:13;;;;;;;1.63;1.20;;;;;;;7.21;100.00;99268.17;4690790;61;1137670;-77
2023/03/26 07:15:30;;;;;;;3.57;1.47;;;;;;;7.21;100.00;99268.17;4692055;61;1136995;-73
2023/03/26 07:20:43;;;;;;;;;;;;;;;7.24;100.00;99272.70;4713742;61;1136816;-74
2023/03/26 07:25:50;;;;;;;5.27;3.73;;;;;;;7.25;100.00;99274.38;4708374;61;974232;-79
2023/03/26 07:31:33;;;;;;;3.75;1.95;;;;;;;7.27;100.00;99295.29;4854256;57;1134616;-71
2023/03/26 07:37:32;;;;;;;8.35;3.77;;;;;;;7.27;100.00;99293.50;4901558;58;1136726;-75
2023/03/26 07:43:32;;;;;;;3.02;1.62;;;;;;;7.30;100.00;99305.56;4904767;57;1136757;-71
2023/03/26 07:48:47;;;;;;;2.08;1.12;;;;;;;7.27;100.00;99305.33;4986067;56;1136702;-76
2023/03/26 07:53:59;;;;;;;3.20;1.17;;;;;;;7.31;100.00;99309.86;4977051;56;1136872;-74
2023/03/26 07:59:31;;;;;;;4.63;1.00;;;;;;;7.36;100.00;99308.97;5002473;57;1136766;-72
2023/03/26 08:05:09;;;;;;;1.00;0.90;;;;;;;7.42;100.00;99308.47;5028595;56;1136691;-73
2023/03/26 08:11:26;;;;;;;3.03;1.13;;;;;;;7.51;100.00;99309.00;5083575;56;1136844;-75
2023/03/26 08:16:57;;;;;;;2.63;0.80;;;;;;;7.66;100.00;99310.34;5152931;55;1137311;-70
2023/03/26 08:22:16;;;;;;;9.57;6.67;;;;;;;7.76;100.00;99315.20;5087296;56;1136849;-70
2023/03/26 08:27:48;;;;;;;7.70;2.87;;;;;;;7.82;100.00;99316.93;5099265;56;1136729;-75
2023/03/26 08:33:01;;;;;;;3.40;1.02;;;;;;;7.81;100.00;99316.58;5015613;56;1136797;-71
2023/03/26 08:38:07;;;;;;;2.83;1.13;;;;;;;7.82;100.00;99311.19;4964085;57;1136714;-70
2023/03/26 08:43:17;;;;;;;1.70;1.40;;;;;;;8.04;100.00;99311.50;4932711;57;1136798;-76
2023/03/26 08:48:45;;;;;;;3.95;1.90;;;;;;;8.18;100.00;99298.45;4989103;57;1136964;-74
2023/03/26 08:54:18;;;;;;;1.27;1.10;;;;;;;8.62;100.00;99296.73;5047009;56;1236232;-71
2023/03/26 08:59:46;;;;;;;2.83;0.87;;;;;;;8.84;100.00;99293.50;5008382;56;1136700;-69
2023/03/26 09:05:46;;;;;;;1.33;1.23;;;;;;;8.80;100.00;99295.09;4919217;57;1136845;-79
2023/03/26 09:11:14;;;;;;;2.27;0.83;;;;;;;8.74;100.00;99291.67;5009361;56;1136870;-77
2023/03/26 09:16:59;;;;;;;1.17;0.70;;;;;;;8.61;100.00;99298.17;4924904;58;1136705;-80
2023/03/26 09:22:17;;;;;;;0.95;0.65;;;;;;;8.51;100.00;99300.80;4981671;57;1136783;-78
2023/03/26 09:28:10;;;;;;;23.90;5.67;;;;;;;8.59;100.00;99298.80;5003742;57;1136716;-80
2023/03/26 09:33:45;;;;;;;3.67;2.63;;;;;;;8.70;100.00;99303.48;5046235;56;1138817;-83
2023/03/26 09:39:13;;;;;;;2.17;1.80;;;;;;;8.85;100.00;99302.59;4923374;57;1137422;-81
2023/03/26 09:44:26;;;;;;;10.50;4.00;;;;;;;9.10;100.00;99292.80;5075107;56;1136659;-78
2023/03/26 09:49:40;;;;;;;;;;;;;;;9.30;100.00;99300.22;5123545;56;1139006;-78
2023/03/26 09:54:56;;;;;;;2.55;1.10;;;;;;;9.18;100.00;99296.05;5087985;56;974205;-81
2023/03/26 10:00:27;;;;;;;3.17;1.00;;;;;;;9.26;100.00;99298.00;5083681;56;1134586;-81
2023/03/26 10:06:00;;;;;;;1.30;0.83;;;;;;;9.25;100.00;99303.77;5078328;56;1136776;-73
2023/03/26 10:11:23;;;;;;;2.97;1.10;;;;;;;9.18;100.00;99302.64;4973822;56;1136685;-72
2023/03/26 10:16:51;;;;;;;9.03;1.00;;;;;;;9.17;100.00;99297.02;4963918;56;1136620;-67
2023/03/26 10:22:13;;;;;;;1.37;1.07;;;;;;;9.22;100.00;99300.08;4974352;56;1136770;-76
2023/03/26 10:27:45;;;;;;;1.98;0.82;;;;;;;9.20;100.00;99302.02;4995755;57;1136673;-73
2023/03/26 10:33:24;;;;;;;3.83;2.30;;;;;;;9.05;100.00;99296.33;4929837;57;1136964;-68
2023/03/26 10:39:03;;;;;;;2.43;1.27;;;;;;;9.15;100.00;99292.39;5004954;56;1137234;-74
2023/03/26 10:44:31;;;;;;;3.33;1.40;;;;;;;9.22;100.00;99295.28;5031991;56;1136712;-77
2023/03/26 10:50:02;;;;;;;8.13;3.63;;;;;;;9.30;100.00;99291.48;4992568;57;1137334;-78
2023/03/26 10:55:44;;;;;;;4.93;1.83;;;;;;;9.42;100.00;99280.62;5030819;56;1136775;-71
2023/03/26 11:01:08;;;;;;;8.30;3.03;;;;;;;9.50;100.00;99279.89;5006245;56;1136872;-73
2023/03/26 11:06:52;;;;;;;2.23;1.80;;;;;;;9.48;100.00;99297.67;5076305;56;1136722;-77
2023/03/26 11:12:29;;;;;;;11.05;4.47;;;;;;;9.24;100.00;99294.66;4997473;57;1136667;-70
2023/03/26 11:17:57;;;;;;;3.13;1.30;;;;;;;9.03;100.00;99290.36;5032582;56;1138965;-66
2023/03/26 11:23:35;;;;;;;1.43;0.77;;;;;;;8.94;100.00;99282.46;5033877;57;1136653;-70
2023/03/26 11:29:26;;;;;;;3.13;1.43;;;;;;;9.03;100.00;99281.12;5028697;56;1136887;-74
2023/03/26 11:34:38;;;;;;;3.87;1.32;;;;;;;9.17;100.00;99282.02;5022337;56;1136642;-74
2023/03/26 11:39:54;;;;;;;1.97;1.13;;;;;;;9.26;100.00;99297.52;4931896;56;1136749;-69
2023/03/26 11:45:04;;;;;;;1.27;0.80;;;;;;;9.01;100.00;99316.03;4959526;57;1136710;-68
2023/03/26 11:50:19;;;;;;;1.97;0.97;;;;;;;8.77;100.00;99303.75;5020570;57;1136805;-71
2023/03/26 11:55:27;;;;;;;6.47;1.40;;;;;;;8.97;100.00;99292.25;5049638;56;1136779;-76
2023/03/26 12:00:33;;;;;;;4.07;1.67;;;;;;;9.40;100.00;99291.80;5046205;56;1136714;-69
2023/03/26 12:05:49;;;;;;;3.40;1.20;;;;;;;9.68;100.00;99287.42;5029482;56;1136919;-75
2023/03/26 12:11:11;;;;;;;2.30;1.00;;;;;;;9.99;100.00;99280.58;5030401;56;1136705;-81
2023/03/26 12:16:20;;;;;;;14.07;3.98;;;;;;;10.11;100.00;99270.16;5018845;56;1136619;-81
2023/03/26 12:21:26;;;;;;;2.03;0.90;;;;;;;10.22;100.00;99270.02;5041586;57;1253052;-78
2023/03/26 12:26:41;;;;;;;0.77;0.60;;;;;;;10.34;100.00;99266.19;5015787;57;1138802;-80
2023/03/26 12:32:00;;;;;;;3.90;1.70;;;;;;;10.66;100.00;99279.42;4992250;57;1138868;-79
2023/03/26 12:37:09;;;;;;;3.53;1.73;;;;;;;10.90;100.00;99267.73;5000794;57;1138942;-82
2023/03/26 12:42:31;;;;;;;0.83;0.83;;;;;;;10.77;100.00;99271.25;4977198;57;1138797;-83
2023/03/26 12:47:36;;;;;;;6.62;2.10;;;;;;;10.63;100.00;99277.06;4997366;57;1138734;-80
2023/03/26 12:52:47;;;;;;;4.57;1.20;;;;;;;10.58;100.00;99274.38;5012578;56;1138996;-80
2023/03/26 12:58:11;;;;;;;3.60;0.83;;;;;;;10.55;100.00;99268.54;5028073;56;1138800;-82
2023/03/26 13:03:40;;;;;;;2.73;1.03;;;;;;;10.49;100.00;99260.73;5028392;57;1138930;-86
2023/03/26 13:09:19;;;;;;;2.20;0.65;;;;;;;10.53;100.00;99267.40;5043048;56;1138898;-83
2023/03/26 13:14:36;;;;;;;4.00;1.07;;;;;;;10.51;100.00;99264.07;5012972;57;1145051;-83
2023/03/26 13:20:11;;;;;;;0.90;0.90;;;;;;;10.73;100.00;99252.70;5047144;57;1138832;-82
2023/03/26 13:25:50;;;;;;;2.27;0.70;;;;;;;10.82;100.00;99249.16;4920564;57;1138831;-87
2023/03/26 13:31:08;;;;;;;3.58;1.12;;;;;;;10.74;100.00;99263.13;4936542;57;1138970;-83
2023/03/26 13:36:30;;;;;;;5.63;1.13;;;;;;;10.41;100.00;99267.24;4921338;57;1138825;-83
2023/03/26 13:42:01;;;;;;;1.05;0.85;;;;;;;10.17;100.00;99269.59;4915952;58;1138940;-77
2023/03/26 13:47:20;;;;;;;5.00;1.03;;;;;;;10.23;100.00;99275.13;4898558;59;1138877;-80
2023/03/26 13:52:33;;;;;;;4.40;1.13;;;;;;;10.08;100.00;99276.56;4919528;56;1138806;-80
2023/03/26 13:57:42;;;;;;;2.27;0.62;;;;;;;9.93;100.00;99275.89;4924336;58;1138845;-85
2023/03/26 14:03:01;;;;;;;2.80;0.90;;;;;;;9.85;100.00;99271.32;4952236;57;1136587;-78
2023/03/26 14:08:21;;;;;;;2.77;1.20;;;;;;;9.94;100.00;99269.12;4933285;56;1136610;-77
2023/03/26 14:13:34;;;;;;;1.33;0.73;;;;;;;10.44;100.00;99258.19;4965484;56;1143551;-85
2023/03/26 14:18:48;;;;;;;;;;;;;;;10.89;100.00;99256.81;5017408;57;1138786;-77
2023/03/26 14:24:19;;;;;;;1.10;0.47;;;;;;;10.73;100.00;99257.98;5049779;56;976405;-79
2023/03/26 14:30:10;;;;;;;4.58;1.15;;;;;;;10.92;97.83;99252.06;5114830;56;1136714;-80
2023/03/26 14:35:49;;;;;;;1.23;0.80;;;;;;;11.18;95.21;99240.68;5097601;56;1136614;-77
2023/03/26 14:41:24;;;;;;;0.40;0.40;;;;;;;11.36;93.58;99238.83;4852235;58;1136885;-86
2023/03/26 14:46:43;;;;;;;1.07;0.50;;;;;;;11.34;78.42;99241.29;4846758;58;1136756;-74
2023/03/26 14:52:13;;;;;;;0.70;0.70;;;;;;;11.36;77.48;99249.91;4864885;59;1136716;-84
2023/03/26 14:57:45;;;;;;;1.03;0.60;;;;;;;11.45;74.45;99248.51;4845435;58;1136680;-82
2023/03/26 15:03:26;;;;;;;7.10;0.70;;;;;;;11.52;70.33;99246.88;4832842;58;1136676;-74
2023/03/26 15:08:51;;;;;;;0.53;0.53;;;;;;;11.54;71.85;99256.00;4904728;57;1136718;-82
2023/03/26 15:14:34;;;;;;;0.40;0.40;;;;;;;11.57;68.20;99254.37;4935979;58;1136640;-71
2023/03/26 15:20:15;;;;;;;3.58;0.88;;;;;;;11.49;70.39;99263.56;4903985;58;1136635;-70
2023/03/26 15:25:57;;;;;;;2.87;1.20;;;;;;;11.25;73.65;99266.88;4885544;58;1136671;-74
2023/03/26 15:31:15;;;;;;;3.62;1.00;;;;;;;10.88;75.86;99277.14;4894837;58;1136961;-66
2023/03/26 15:36:35;;;;;;;3.33;1.62;;;;;;;10.61;78.44;99285.14;4897290;57;1136817;-74
2023/03/26 15:42:10;;;;;;;3.33;1.13;;;;;;;10.40;78.14;99277.47;4916457;58;1136727;-76
2023/03/26 15:47:44;;;;;;;2.60;1.50;;;;;;;10.29;80.30;99275.04;4992807;57;1136638;-68
2023/03/26 15:53:32;;;;;;;2.67;1.15;;;;;;;10.25;83.04;99269.70;5051942;56;1136705;-74
2023/03/26 15:59:14;;;;;;;1.10;0.93;;;;;;;10.18;83.68;99273.44;5001855;57;1136789;-70
2023/03/26 16:04:36;;;;;;;2.65;1.20;;;;;;;10.12;84.28;99271.82;5013365;57;1136761;-69
2023/03/26 16:10:04;;;;;;;3.23;1.50;;;;;;;10.10;87.00;99273.28;5028870;56;1136710;-74
2023/03/26 16:15:28;;;;;;;1.90;1.03;;;;;;;10.04;86.99;99269.92;4940734;57;1136732;-70
2023/03/26 16:20:55;;;;;;;1.77;0.90;;;;;;;9.97;87.02;99268.83;4869403;58;1136780;-67
2023/03/26 16:26:20;;;;;;;1.77;1.10;;;;;;;9.96;89.47;99264.52;4784664;59;1134672;-67
2023/03/26 16:31:36;;;;;;;3.13;1.00;;;;;;;9.92;89.66;99275.06;4797138;58;1134665;-69
2023/03/26 16:36:50;;;;;;;5.60;1.50;;;;;;;9.91;90.08;99268.11;4817834;58;1134642;-70
2023/03/26 16:42:17;;;;;;;2.60;1.13;;;;;;;9.91;90.61;99271.24;4910257;58;1134645;-72
2023/03/26 16:47:31;;;;;;;3.47;1.77;;;;;;;9.91;91.90;99265.47;4876075;57;1134779;-70
2023/03/26 16:52:57;;;;;;;3.10;1.40;;;;;;;9.84;93.03;99266.52;4970830;57;1134656;-74
2023/03/26 16:58:22;;;;;;;2.80;1.50;;;;;;;9.80;94.10;99270.91;5006896;57;1134751;-66
2023/03/26 17:03:36;;;;;;;7.00;3.00;;;;;;;9.72;94.78;99272.14;5098797;56;1134685;-69
2023/03/26 17:09:02;;;;;;;11.93;5.90;;;;;;;9.62;95.59;99272.66;5045436;56;1134526;-70
2023/03/26 17:14:34;;;;;;;4.40;2.37;;;;;;;9.52;96.50;99270.86;4983424;56;1136687;-69
2023/03/26 17:19:58;;;;;;;5.60;2.00;;;;;;;9.42;97.27;99267.91;5010474;56;1132519;-75
2023/03/26 17:25:26;;;;;;;3.17;2.20;;;;;;;9.30;97.82;99267.24;5064000;56;1132438;-74
2023/03/26 17:30:55;;;;;;;3.27;2.07;;;;;;;9.21;98.61;99268.08;5081155;56;1132874;-65
2023/03/26 17:36:17;;;;;;;2.67;1.73;;;;;;;9.10;99.05;99265.59;5057779;56;1132550;-66
2023/03/26 17:41:55;;;;;;;5.33;2.27;;;;;;;9.02;99.67;99274.19;5028439;56;1132595;-75
2023/03/26 17:47:01;;;;;;;5.03;2.27;;;;;;;8.96;100.00;99273.93;5046282;56;1132556;-74
2023/03/26 17:52:24;;;;;;;9.57;2.87;;;;;;;8.91;100.00;99281.41;5058312;56;1134656;-71
2023/03/26 17:57:45;;;;;;;12.97;3.37;;;;;;;8.86;100.00;99283.14;5009907;56;1134584;-72
2023/03/26 18:02:58;;;;;;;8.23;3.13;;;;;;;8.80;100.00;99282.39;5003027;56;1138708;-72
2023/03/26 18:08:24;;;;;;;;;;;;;;;8.79;100.00;99280.23;4966130;57;1136779;-67
2023/03/26 18:14:22;;;;;;;30.80;9.17;;;;;;;8.76;100.00;99291.53;5087502;55;973944;-65
2023/03/26 18:19:30;;;;;;;8.47;4.00;;;;;;;8.63;100.00;99288.34;5078291;55;1136692;-70
2023/03/26 18:24:41;;;;;;;11.90;4.63;;;;;;;8.50;100.00;99289.08;5017282;56;1136796;-67
2023/03/26 18:30:00;;;;;;;6.20;3.17;;;;;;;8.38;100.00;99288.37;5074057;56;1136701;-68
2023/03/26 18:35:21;;;;;;;10.57;4.57;;;;;;;8.31;100.00;99285.88;5051974;56;1134627;-66
2023/03/26 18:40:41;;;;;;;8.50;3.70;;;;;;;8.20;100.00;99292.58;5039325;56;1136781;-74
2023/03/26 18:45:51;;;;;;;7.90;4.10;;;;;;;8.12;100.00;99294.55;5028088;56;1134675;-72
2023/03/26 18:51:04;;;;;;;9.23;4.07;;;;;;;8.08;100.00;99297.12;5042587;57;1134943;-69
2023/03/26 18:56:40;;;;;;;12.47;5.20;;;;;;;8.06;100.00;99297.73;5007623;56;1134696;-66
2023/03/26 19:01:48;;;;;;;16.60;6.53;;;;;;;8.02;100.00;99298.95;5036452;56;1138760;-70
2023/03/26 19:06:56;;;;;;;45.13;15.57;;;;;;;8.11;100.00;99292.39;4994030;56;1138656;-71
2023/03/26 19:12:24;;;;;;;65.63;26.60;;;;;;;8.16;100.00;99296.44;4997720;56;1140977;-69
2023/03/26 19:17:39;;;;;;;46.80;18.93;;;;;;;8.18;100.00;99299.29;4915703;57;1140952;-75
2023/03/26 19:22:47;;;;;;;54.55;24.67;;;;;;;8.23;100.00;99294.47;4972878;56;1141038;-68
2023/03/26 19:27:53;;;;;;;32.77;15.00;;;;;;;8.24;100.00;99293.50;5008340;56;1138864;-72
2023/03/26 19:33:15;;;;;;;38.17;15.17;;;;;;;8.20;100.00;99288.62;4953955;57;1138727;-69
2023/03/26 19:38:27;;;;;;;121.17;50.87;;;;;;;8.13;100.00;99294.41;4978702;57;1138718;-68
2023/03/26 19:43:33;;;;;;;122.83;48.77;;;;;;;8.05;100.00;99302.16;4925877;56;1140931;-70
2023/03/26 19:48:39;;;;;;;186.97;72.40;;;;;;;7.94;100.00;99294.84;4962498;57;1140818;-73
2023/03/26 19:53:49;;;;;;;136.43;51.95;;;;;;;7.94;100.00;99285.15;5007173;56;1143199;-77
2023/03/26 19:58:58;;;;;;;144.77;53.90;;;;;;;8.02;100.00;99293.69;4977450;57;1143031;-75
2023/03/26 20:04:06;;;;;;;68.85;28.27;;;;;;;8.09;100.00;99284.30;5027956;56;1142844;-69
2023/03/26 20:09:15;;;;;;;69.70;30.10;;;;;;;8.19;100.00;99288.27;4987754;57;1140821;-72
2023/03/26 20:14:24;;;;;;;67.87;31.42;;;;;;;8.24;100.00;99288.72;5006638;56;1140920;-73
2023/03/26 20:19:29;;;;;;;64.23;29.60;;;;;;;8.22;100.00;99279.63;5018056;57;1140941;-73
2023/03/26 20:24:35;;;;;;;62.07;28.37;;;;;;;8.15;100.00;99277.65;4983542;57;1138804;-66
2023/03/26 20:29:41;;;;;;;78.03;32.67;;;;;;;8.05;100.00;99281.09;5011765;57;1138945;-68
2023/03/26 20:34:48;;;;;;;64.32;27.73;;;;;;;7.94;100.00;99278.56;5030472;56;1138863;-71
2023/03/26 20:39:54;;;;;;;106.70;33.50;;;;;;;7.77;100.00;99292.34;4962801;57;1138814;-68
2023/03/26 20:44:59;;;;;;;134.63;43.67;;;;;;;7.50;100.00;99304.70;5069883;56;1142967;-70
2023/03/26 20:50:06;;;;;;;165.63;55.40;;;;;;;7.33;100.00;99298.73;5166657;56;1143066;-69
2023/03/26 20:55:20;;;;;;;131.10;39.37;;;;;;;7.38;100.00;99316.26;4995191;56;1143176;-72
2023/03/26 21:00:25;;;;;;;67.00;20.40;;;;;;;7.30;100.00;99315.59;5062130;56;1143037;-73
2023/03/26 21:05:31;;;;;;;35.97;13.40;;;;;;;7.30;100.00;99317.39;5066448;56;1140919;-70
2023/03/26 21:10:37;;;;;;;29.23;9.60;;;;;;;7.24;100.00;99328.41;5087406;56;1138904;-70
2023/03/26 21:15:43;;;;;;;19.82;6.30;;;;;;;7.08;100.00;99326.69;4982200;57;1136759;-69
2023/03/26 21:21:00;;;;;;;21.70;6.22;;;;;;;6.96;100.00;99330.69;4953308;57;1138807;-71
2023/03/26 21:26:13;;;;;;;24.63;7.07;;;;;;;6.86;100.00;99334.20;4978905;56;1138930;-70
2023/03/26 21:31:29;;;;;;;30.00;10.23;;;;;;;6.75;100.00;99335.52;5079932;56;1138796;-72
2023/03/26 21:36:30;;;;;;;37.40;12.47;;;;;;;6.70;100.00;99341.16;5089419;55;1138747;-72
2023/03/26 21:41:50;;;;;;;32.40;8.93;;;;;;;6.68;100.00;99339.14;5129668;55;1138751;-72
2023/03/26 21:46:56;;;;;;;28.20;9.10;;;;;;;6.68;100.00;99341.77;5067118;56;1136538;-72
2023/03/26 21:52:02;;;;;;;27.20;7.60;;;;;;;6.65;100.00;99348.09;5067530;56;1136557;-71
2023/03/26 21:57:18;;;;;;;40.10;10.63;;;;;;;6.55;100.00;99339.28;5172111;55;1136796;-69
2023/03/26 22:02:37;;;;;;;47.73;15.53;;;;;;;6.50;100.00;99338.81;5094778;55;1141027;-69
2023/03/26 22:08:00;;;;;;;34.50;10.37;;;;;;;6.47;100.00;99339.52;5089988;56;1150589;-72
2023/03/26 22:13:06;;;;;;;32.17;10.50;;;;;;;6.47;100.00;99339.52;5115816;56;1140800;-70
2023/03/26 22:18:13;;;;;;;44.67;12.97;;;;;;;6.44;100.00;99337.97;5089605;56;1245201;-69
2023/03/26 22:23:19;;;;;;;61.43;18.53;;;;;;;6.46;100.00;99333.44;5096258;56;1138802;-72
2023/03/26 22:28:25;;;;;;;57.23;19.77;;;;;;;6.50;100.00;99333.55;5100963;56;1138991;-74
2023/03/26 22:33:31;;;;;;;67.40;21.47;;;;;;;6.50;100.00;99332.72;5116625;56;1138970;-70
2023/03/26 22:38:37;;;;;;;69.43;24.17;;;;;;;6.48;100.00;99337.25;5096988;55;1138801;-74
2023/03/26 22:43:44;;;;;;;87.33;27.87;;;;;;;6.43;100.00;99336.30;5091316;56;1138947;-69
2023/03/26 22:48:50;;;;;;;81.75;25.15;;;;;;;6.37;100.00;99334.66;5114546;56;1138678;-73
2023/03/26 22:53:56;;;;;;;145.93;39.03;;;;;;;6.26;100.00;99341.56;5104707;56;1138686;-72
2023/03/26 22:59:02;;;;;;;146.13;37.80;;;;;;;6.15;100.00;99352.08;5085248;56;1140824;-70
2023/03/26 23:04:08;;;;;;;190.60;50.27;;;;;;;6.11;100.00;99349.33;5101369;56;1140822;-69
2023/03/26 23:09:14;;;;;;;203.07;56.57;;;;;;;6.12;100.00;99344.44;5061613;56;1143140;-72
2023/03/26 23:14:20;;;;;;;145.22;41.75;;;;;;;6.13;100.00;99347.90;5039400;55;1143081;-69
2023/03/26 23:19:28;;;;;;;110.23;31.47;;;;;;;6.12;100.00;99360.66;5087744;56;1140796;-71
2023/03/26 23:24:33;;;;;;;109.90;33.20;;;;;;;6.04;100.00;99347.31;5042813;56;1140799;-69
2023/03/26 23:29:39;;;;;;;70.77;22.60;;;;;;;5.95;100.00;99347.09;4903916;58;1140813;-67
2023/03/26 23:34:44;;;;;;;71.97;21.35;;;;;;;5.89;100.00;99353.27;5004651;56;1138712;-72
2023/03/26 23:39:51;;;;;;;67.40;22.05;;;;;;;5.79;100.00;99347.88;4980649;57;1139098;-74
2023/03/26 23:44:57;;;;;;;77.43;25.10;;;;;;;5.77;100.00;99360.27;4911139;58;1138988;-73
2023/03/26 23:50:04;;;;;;;42.70;15.93;;;;;;;5.72;100.00;99358.45;4999850;57;1138739;-71
2023/03/26 23:55:10;;;;;;;34.30;9.93;;;;;;;5.66;100.00;99366.30;5031874;57;1138712;-74
